.
WxDataArchive / Data Records for 2011-07-13
2011-07-12 July 2011 2011-07-14

Data Records for Wednesday, 13 July 2011

Time	Temp	Chill	HIndex	Humid	Dewpt	 Wind 	HiWind	WindDir	Rain 	Barom 
-----	----	-----	------	-----	-----	------	------	-------	-----	----- 
00:00	74.6	74.6	74.6	57	58.3	0	1	315	0.00	29.908 
00:05	74.4	74.4	74.4	58	58.6	0	0	---	0.00	29.908 
00:10	74.2	74.2	74.2	58	58.5	0	1	315	0.00	29.908 
00:15	74.0	74.0	74.0	58	58.3	0	0	---	0.00	29.910 
00:20	73.9	73.9	73.9	58	58.2	0	0	---	0.00	29.910 
00:25	73.7	73.7	73.7	59	58.5	0	0	---	0.00	29.910 
00:30	73.5	73.5	73.5	59	58.3	0	1	315	0.00	29.919 
00:35	73.5	73.5	73.5	59	58.3	0	1	315	0.00	29.919 
00:40	73.5	73.5	73.5	59	58.3	0	0	---	0.00	29.919 
00:45	73.5	73.5	73.5	60	58.7	0	0	---	0.00	29.923 
00:50	73.3	73.3	73.3	60	58.6	0	0	---	0.00	29.923 
00:55	73.2	73.2	73.2	61	58.9	0	0	---	0.00	29.923 
01:00	73.2	73.2	73.2	61	58.9	0	0	---	0.00	29.923 
01:05	73.0	73.0	73.0	62	59.2	0	1	315	0.00	29.923 
01:10	72.8	72.8	72.8	62	59.0	0	0	---	0.00	29.923 
01:15	72.7	72.7	72.7	62	58.9	0	0	---	0.00	29.916 
01:20	72.5	72.5	72.5	62	58.7	0	0	---	0.00	29.916 
01:25	72.5	72.5	72.5	62	58.7	0	0	---	0.00	29.916 
01:30	72.5	72.5	72.5	63	59.2	0	0	---	0.00	29.918 
01:35	72.5	72.5	72.5	63	59.2	0	0	---	0.00	29.918 
01:40	72.3	72.3	72.3	63	59.0	0	0	---	0.00	29.918 
01:45	72.3	72.3	72.3	64	59.4	0	0	---	0.00	29.923 
01:50	72.1	72.1	72.1	64	59.2	0	0	---	0.00	29.923 
01:55	72.0	72.0	72.0	64	59.1	0	0	---	0.00	29.923 
02:00	71.8	71.8	71.8	65	59.4	0	0	---	0.00	29.919 
02:05	71.6	71.6	71.6	66	59.6	0	0	---	0.00	29.919 
02:10	71.5	71.5	71.5	65	59.1	0	0	---	0.00	29.919 
02:15	71.3	71.3	71.3	66	59.3	0	0	---	0.00	29.923 
02:20	71.1	71.1	71.1	67	59.6	0	0	---	0.00	29.923 
02:25	71.1	71.1	71.1	67	59.6	0	0	---	0.00	29.923 
02:30	70.9	70.9	70.9	67	59.4	0	0	---	0.00	29.919 
02:35	70.9	70.9	70.9	68	59.8	0	0	---	0.00	29.919 
02:40	71.1	71.1	71.1	67	59.6	0	0	---	0.00	29.919 
02:45	71.1	71.1	71.1	68	60.0	0	0	---	0.00	29.914 
02:50	71.1	71.1	71.1	68	60.0	0	0	---	0.00	29.914 
02:55	71.1	71.1	71.1	68	60.0	0	0	---	0.00	29.914 
03:00	71.1	71.1	71.1	68	60.0	0	0	---	0.00	29.913 
03:05	71.1	71.1	71.1	68	60.0	0	0	---	0.00	29.913 
03:10	70.9	70.9	70.9	68	59.8	0	1	315	0.00	29.913 
03:15	71.1	71.1	71.1	67	59.6	0	0	---	0.00	29.911 
03:20	71.1	71.1	71.1	68	60.0	0	0	---	0.00	29.911 
03:25	71.1	71.1	71.1	68	60.0	0	0	---	0.00	29.911 
03:30	71.1	71.1	71.1	68	60.0	0	0	---	0.00	29.910 
03:35	70.9	70.9	70.9	68	59.8	0	0	---	0.00	29.910 
03:40	70.9	70.9	70.9	69	60.2	0	0	---	0.00	29.910 
03:45	70.8	70.8	70.8	69	60.1	0	0	---	0.00	29.914 
03:50	70.6	70.6	70.6	69	59.9	0	0	---	0.00	29.914 
03:55	70.6	70.6	70.6	69	59.9	0	0	---	0.00	29.914 
04:00	70.4	70.4	70.4	70	60.1	0	0	---	0.00	29.921 
04:05	70.4	70.4	70.4	69	59.7	0	1	315	0.00	29.921 
04:10	70.4	70.4	70.4	69	59.7	0	1	315	0.00	29.921 
04:15	70.4	70.4	70.4	69	59.7	0	1	315	0.00	29.923 
04:20	70.4	70.4	70.4	69	59.7	0	0	---	0.00	29.923 
04:25	70.3	70.3	70.3	69	59.6	0	1	315	0.00	29.923 
04:30	70.3	70.3	70.3	68	59.2	0	1	315	0.00	29.924 
04:35	70.3	70.3	70.3	68	59.2	0	1	315	0.00	29.924 
04:40	70.3	70.3	70.3	67	58.8	0	1	315	0.00	29.924 
04:45	70.3	70.3	70.3	68	59.2	0	2	315	0.00	29.927 
04:50	70.3	70.3	70.3	68	59.2	0	1	315	0.00	29.927 
04:55	70.1	70.1	70.1	68	59.0	0	3	315	0.00	29.927 
05:00	70.1	70.1	70.1	68	59.0	0	2	315	0.00	29.931 
05:05	69.9	69.9	69.9	68	58.8	0	1	315	0.00	29.931 
05:10	69.9	69.9	69.9	68	58.8	0	1	315	0.00	29.931 
05:15	69.8	69.8	69.8	69	59.2	0	1	315	0.00	29.937 
05:20	69.8	69.8	69.8	69	59.2	0	1	315	0.00	29.937 
05:25	69.6	69.6	69.6	69	59.0	0	3	315	0.00	29.937 
05:30	69.4	69.4	69.4	69	58.8	0	1	90	0.00	29.939 
05:35	69.4	69.4	69.4	69	58.8	0	1	90	0.00	29.939 
05:40	69.4	69.4	69.4	69	58.8	0	1	90	0.00	29.939 
05:45	69.3	69.3	69.3	69	58.7	0	1	90	0.00	29.942 
05:50	69.3	69.3	69.3	69	58.7	0	1	90	0.00	29.942 
05:55	69.3	69.3	69.3	69	58.7	0	1	90	0.00	29.942 
06:00	69.1	69.1	69.1	69	58.5	0	1	90	0.00	29.948 
06:05	69.1	69.1	69.1	69	58.5	0	2	90	0.00	29.948 
06:10	68.9	68.9	68.9	70	58.7	0	2	90	0.00	29.948 
06:15	68.8	68.8	68.8	70	58.6	0	2	90	0.00	29.959 
06:20	68.6	68.6	68.6	70	58.4	0	2	22	0.00	29.959 
06:25	68.4	68.4	68.4	70	58.2	0	3	292	0.00	29.959 
06:30	68.4	68.4	68.4	70	58.2	0	3	292	0.00	29.962 
06:35	68.4	68.4	68.4	69	57.8	0	3	270	0.00	29.962 
06:40	68.4	68.4	68.4	69	57.8	0	1	270	0.00	29.962 
06:45	68.3	68.3	68.3	69	57.7	0	1	270	0.00	29.963 
06:50	68.3	68.3	68.3	68	57.3	0	3	270	0.00	29.963 
06:55	68.3	68.3	68.3	68	57.3	0	2	270	0.00	29.963 
07:00	68.3	68.3	68.3	68	57.3	1	3	158	0.00	29.973 
07:05	68.3	68.3	68.3	68	57.3	0	1	90	0.00	29.973 
07:10	68.3	68.3	68.3	67	56.9	0	2	90	0.00	29.973 
07:15	68.1	68.1	68.1	67	56.7	0	1	68	0.00	29.977 
07:20	68.1	68.1	68.1	67	56.7	0	1	68	0.00	29.977 
07:25	68.1	68.1	68.1	66	56.3	0	3	270	0.00	29.977 
07:30	68.1	68.1	68.1	66	56.3	0	2	315	0.00	29.977 
07:35	68.1	68.1	68.1	66	56.3	0	2	315	0.00	29.977 
07:40	68.1	68.1	68.1	66	56.3	0	1	135	0.00	29.977 
07:45	67.9	67.9	67.9	65	55.7	0	2	270	0.00	29.977 
07:50	67.9	67.9	67.9	65	55.7	0	2	90	0.00	29.977 
07:55	67.9	67.9	67.9	64	55.3	0	2	45	0.00	29.977 
08:00	67.9	67.9	67.9	62	54.4	0	3	22	0.00	29.983 
08:05	67.9	67.9	67.9	62	54.4	0	1	338	0.00	29.983 
08:10	67.9	67.9	67.9	60	53.5	1	3	158	0.00	29.983 
08:15	67.9	67.9	67.9	60	53.5	0	1	45	0.00	29.993 
08:20	68.1	68.1	68.1	61	54.1	0	1	45	0.00	29.993 
08:25	68.3	68.3	68.3	61	54.3	0	1	45	0.00	29.993 
08:30	68.4	68.4	68.4	60	54.0	0	2	45	0.00	29.995 
08:35	68.6	68.6	68.6	58	53.2	0	5	68	0.00	29.995 
08:40	68.9	68.9	68.9	58	53.5	0	3	270	0.00	29.995 
08:45	69.1	69.1	69.1	58	53.7	0	2	270	0.00	29.994 
08:50	69.6	69.6	69.6	58	54.2	1	6	270	0.00	29.994 
08:55	70.3	70.3	70.3	57	54.3	1	5	135	0.00	29.994 
09:00	70.9	70.9	70.9	54	53.4	1	5	292	0.00	29.994 
09:05	71.6	71.6	71.6	54	54.1	0	3	68	0.00	29.994 
09:10	72.0	72.0	72.0	54	54.4	1	5	315	0.00	29.994 
09:15	72.3	72.3	72.3	54	54.7	1	3	315	0.00	29.998 
09:20	72.5	72.5	72.5	53	54.4	1	4	315	0.00	29.998 
09:25	72.5	72.5	72.5	52	53.9	1	3	270	0.00	29.998 
09:30	72.3	72.3	72.3	53	54.2	1	3	270	0.00	30.003 
09:35	72.3	72.3	72.3	52	53.7	1	3	22	0.00	30.003 
09:40	72.5	72.5	72.5	53	54.4	1	4	270	0.00	30.003 
09:45	73.2	73.2	73.2	51	54.0	1	6	112	0.00	30.007 
09:50	73.7	73.7	73.7	52	55.0	0	3	270	0.00	30.007 
09:55	73.7	73.7	73.7	50	53.9	1	4	270	0.00	30.007 
10:00	73.0	73.0	73.0	48	52.1	2	7	292	0.00	30.010 
10:05	73.2	73.2	73.2	51	54.0	0	3	292	0.00	30.010 
10:10	73.9	73.9	73.9	51	54.6	2	6	68	0.00	30.010 
10:15	74.7	74.7	74.7	49	54.3	0	2	90	0.00	30.009 
10:20	74.7	74.7	74.7	50	54.8	0	3	90	0.00	30.009 
10:25	74.4	74.4	74.4	47	52.8	1	5	338	0.00	30.009 
10:30	74.0	74.0	74.0	46	51.9	2	5	248	0.00	30.011 
10:35	74.4	74.4	74.4	47	52.8	1	6	270	0.00	30.011 
10:40	75.1	75.1	77.6	45	52.3	1	5	90	0.00	30.011 
10:45	75.6	75.6	77.8	46	53.3	1	5	90	0.00	30.015 
10:50	75.3	75.3	77.7	46	53.1	1	3	90	0.00	30.015 
10:55	75.6	75.6	77.8	46	53.3	0	2	90	0.00	30.015 
11:00	75.6	75.6	77.8	43	51.5	2	6	292	0.00	30.012 
11:05	74.7	74.7	74.7	45	51.9	1	5	338	0.00	30.012 
11:10	74.9	74.9	74.9	46	52.7	1	4	315	0.00	30.012 
11:15	75.1	75.1	77.6	44	51.7	1	4	315	0.00	30.018 
11:20	74.7	74.7	74.7	44	51.3	2	4	270	0.00	30.018 
11:25	75.3	75.3	77.7	43	51.2	1	5	270	0.00	30.018 
11:30	76.0	76.0	78.0	45	53.1	1	7	112	0.00	30.019 
11:35	76.5	76.5	78.2	45	53.6	2	6	90	0.00	30.019 
11:40	77.0	77.0	78.3	41	51.5	1	3	90	0.00	30.019 
11:45	77.2	77.2	78.4	42	52.3	1	5	135	0.00	30.013 
11:50	77.4	77.4	78.6	44	53.8	1	4	112	0.00	30.013 
11:55	77.4	77.4	78.6	43	53.1	1	5	90	0.00	30.013 
12:00	77.7	77.7	78.7	42	52.8	2	4	112	0.00	30.009 
12:05	77.4	77.4	78.6	43	53.1	1	5	0	0.00	30.009 
12:10	77.9	77.9	78.9	44	54.2	0	2	112	0.00	30.009 
12:15	78.1	78.1	78.8	41	52.5	1	4	315	0.00	30.012 
12:20	78.5	78.5	79.0	40	52.1	1	4	90	0.00	30.012 
12:25	78.6	78.6	79.1	41	52.9	2	5	90	0.00	30.012 
12:30	78.5	78.5	78.9	39	51.5	1	3	292	0.00	30.010 
12:35	78.5	78.5	78.9	39	51.5	1	4	112	0.00	30.010 
12:40	78.3	78.3	78.9	40	52.0	1	5	292	0.00	30.010 
12:45	78.5	78.5	78.9	39	51.5	1	3	90	0.00	30.010 
12:50	78.5	78.5	78.9	39	51.5	1	6	292	0.00	30.010 
12:55	78.3	78.3	78.8	38	50.6	1	4	292	0.00	30.010 
13:00	78.6	78.6	79.0	39	51.5	1	3	225	0.00	30.009 
13:05	79.2	79.2	79.3	38	51.4	1	4	338	0.00	30.009 
13:10	79.0	79.0	79.1	37	50.5	1	5	270	0.00	30.009 
13:15	78.8	78.8	79.0	37	50.3	1	4	315	0.00	30.012 
13:20	79.0	79.0	79.0	36	49.7	1	4	135	0.00	30.012 
13:25	79.4	79.4	79.3	37	50.8	1	4	68	0.00	30.012 
13:30	79.6	79.6	79.2	34	48.7	1	5	45	0.00	30.010 
13:35	79.9	79.9	79.7	38	52.0	1	3	90	0.00	30.010 
13:40	80.5	80.5	80.0	37	51.8	1	4	90	0.00	30.010 
13:45	80.9	80.9	80.3	37	52.2	0	2	90	0.00	30.007 
13:50	80.7	80.7	80.0	35	50.5	0	2	90	0.00	30.007 
13:55	80.1	80.1	79.6	35	50.0	1	2	338	0.00	30.007 
14:00	80.3	80.3	80.0	38	52.4	0	3	0	0.00	30.004 
14:05	81.1	81.1	80.2	34	50.0	1	4	90	0.00	30.004 
14:10	81.2	81.2	80.4	36	51.7	2	6	90	0.00	30.004 
14:15	80.9	80.9	80.1	35	50.7	1	4	0	0.00	30.002 
14:20	81.1	81.1	80.6	39	53.8	1	3	112	0.00	30.002 
14:25	80.9	80.9	80.1	34	49.9	2	7	112	0.00	30.002 
14:30	81.1	81.1	80.6	39	53.8	1	5	90	0.00	30.001 
14:35	80.9	80.9	80.1	35	50.7	1	5	45	0.00	30.001 
14:40	81.1	81.1	80.4	37	52.3	1	5	90	0.00	30.001 
14:45	80.9	80.9	80.2	36	51.4	2	5	292	0.00	30.004 
14:50	80.9	80.9	80.2	36	51.4	1	3	292	0.00	30.004 
14:55	81.2	81.2	80.5	37	52.4	1	3	112	0.00	30.004 
15:00	81.6	81.6	80.5	34	50.5	1	4	270	0.00	29.999 
15:05	81.6	81.6	80.5	33	49.7	2	7	112	0.00	29.999 
15:10	81.4	81.4	80.7	37	52.6	2	5	90	0.00	29.999 
15:15	81.4	81.4	80.4	34	50.3	1	6	112	0.00	29.997 
15:20	81.8	81.8	80.8	35	51.4	1	5	90	0.00	29.997 
15:25	81.8	81.8	80.7	34	50.7	1	4	112	0.00	29.997 
15:30	81.8	81.8	80.7	34	50.7	1	3	158	0.00	29.996 
15:35	82.2	82.2	81.0	34	51.0	1	4	112	0.00	29.996 
15:40	82.2	82.2	81.0	34	51.0	2	5	112	0.00	29.996 
15:45	82.6	82.6	81.1	32	49.7	1	6	112	0.00	29.995 
15:50	82.8	82.8	81.2	31	49.0	0	4	135	0.00	29.995 
15:55	82.8	82.8	81.3	33	50.7	1	5	135	0.00	29.995 
16:00	82.8	82.8	81.6	35	52.3	1	5	68	0.00	29.994 
16:05	82.6	82.6	81.2	33	50.6	2	6	112	0.00	29.994 
16:10	82.6	82.6	81.0	31	48.9	1	5	90	0.00	29.994 
16:15	82.6	82.6	81.0	31	48.9	1	4	90	0.00	29.993 
16:20	82.4	82.4	81.2	35	52.0	1	3	112	0.00	29.993 
16:25	82.6	82.6	81.2	33	50.6	0	2	112	0.00	29.993 
16:30	83.0	83.0	81.4	32	50.1	2	6	112	0.00	29.991 
16:35	82.4	82.4	81.1	34	51.2	2	6	112	0.00	29.991 
16:40	82.6	82.6	81.3	34	51.4	1	4	112	0.00	29.991 
16:45	82.4	82.4	80.9	32	49.5	1	4	90	0.00	29.988 
16:50	82.6	82.6	81.2	33	50.6	2	6	90	0.00	29.988 
16:55	82.6	82.6	81.5	36	52.9	1	5	112	0.00	29.988 
17:00	82.8	82.8	81.3	33	50.7	0	2	225	0.00	29.983 
17:05	82.8	82.8	81.3	33	50.7	1	5	90	0.00	29.983 
17:10	82.8	82.8	81.2	32	49.9	2	7	90	0.00	29.983 
17:15	83.0	83.0	81.5	33	50.9	1	4	90	0.00	29.981 
17:20	83.2	83.2	81.6	32	50.2	1	4	90	0.00	29.981 
17:25	82.8	82.8	81.4	34	51.5	2	11	90	0.00	29.981 
17:30	82.6	82.6	81.3	34	51.4	1	4	90	0.00	29.978 
17:35	82.4	82.4	81.1	34	51.2	0	4	90	0.00	29.978 
17:40	82.4	82.4	81.0	33	50.4	2	5	135	0.00	29.978 
17:45	82.2	82.2	80.9	33	50.2	1	5	90	0.00	29.981 
17:50	82.4	82.4	81.2	35	52.0	1	4	112	0.00	29.981 
17:55	82.2	82.2	80.9	33	50.2	0	2	112	0.00	29.981 
18:00	82.0	82.0	80.7	32	49.2	2	10	90	0.00	29.979 
18:05	81.4	81.4	80.2	32	48.7	3	10	90	0.00	29.979 
18:10	81.1	81.1	80.2	34	50.0	2	6	90	0.00	29.979 
18:15	80.9	80.9	80.1	35	50.7	3	6	90	0.00	29.981 
18:20	80.9	80.9	80.2	36	51.4	2	6	90	0.00	29.981 
18:25	80.9	80.9	80.2	36	51.4	2	7	90	0.00	29.981 
18:30	80.9	80.9	80.1	35	50.7	2	8	90	0.00	29.982 
18:35	80.3	80.3	79.7	35	50.1	3	9	90	0.00	29.982 
18:40	80.1	80.1	79.6	35	50.0	2	4	68	0.00	29.982 
18:45	79.9	79.9	79.6	37	51.3	3	9	68	0.00	29.981 
18:50	80.1	80.1	79.8	37	51.5	2	7	68	0.00	29.981 
18:55	79.9	79.9	79.6	36	50.5	3	8	112	0.00	29.981 
19:00	79.8	79.8	79.5	36	50.4	2	5	112	0.00	29.982 
19:05	79.8	79.8	79.6	37	51.2	2	4	90	0.00	29.982 
19:10	79.6	79.6	79.4	37	51.0	3	6	68	0.00	29.982 
19:15	79.6	79.6	79.6	39	52.4	2	4	90	0.00	29.982 
19:20	79.6	79.6	79.6	39	52.4	2	4	112	0.00	29.982 
19:25	79.4	79.4	79.5	39	52.3	1	4	90	0.00	29.982 
19:30	79.4	79.4	79.5	40	52.9	3	5	90	0.00	29.983 
19:35	79.0	79.0	79.3	40	52.6	2	6	90	0.00	29.983 
19:40	78.6	78.6	79.1	41	52.9	1	3	90	0.00	29.983 
19:45	78.5	78.5	79.2	43	54.1	0	1	90	0.00	29.984 
19:50	77.9	77.9	78.8	43	53.6	0	2	90	0.00	29.984 
19:55	77.7	77.7	78.7	43	53.4	0	2	90	0.00	29.984 
20:00	77.6	77.6	78.7	43	53.3	1	3	90	0.00	29.982 
20:05	77.7	77.7	78.6	41	52.1	1	4	90	0.00	29.982 
20:10	77.7	77.7	78.7	43	53.4	0	3	90	0.00	29.982 
20:15	77.4	77.4	78.6	43	53.1	0	2	90	0.00	29.981 
20:20	77.0	77.0	78.4	44	53.4	0	4	135	0.00	29.981 
20:25	76.7	76.7	78.3	45	53.7	0	2	135	0.00	29.981 
20:30	76.3	76.3	78.1	45	53.4	0	2	135	0.00	29.982 
20:35	76.0	76.0	78.0	46	53.7	0	2	135	0.00	29.982 
20:40	75.8	75.8	77.9	46	53.5	0	2	135	0.00	29.982 
20:45	75.6	75.6	77.9	47	53.9	0	3	135	0.00	29.984 
20:50	75.4	75.4	77.8	47	53.7	0	0	---	0.00	29.984 
20:55	75.3	75.3	77.7	48	54.2	0	0	---	0.00	29.984 
21:00	74.9	74.9	74.9	49	54.4	0	0	---	0.00	29.985 
21:05	74.6	74.6	74.6	49	54.2	0	0	---	0.00	29.985 
21:10	74.2	74.2	74.2	49	53.8	0	1	135	0.00	29.985 
21:15	73.9	73.9	73.9	50	54.1	0	0	---	0.00	29.987 
21:20	73.7	73.7	73.7	51	54.4	0	0	---	0.00	29.987 
21:25	73.3	73.3	73.3	51	54.1	0	0	---	0.00	29.987 
21:30	73.0	73.0	73.0	52	54.3	0	0	---	0.00	29.992 
21:35	72.7	72.7	72.7	53	54.6	0	0	---	0.00	29.992 
21:40	72.5	72.5	72.5	53	54.4	0	0	---	0.00	29.992 
21:45	72.1	72.1	72.1	54	54.5	0	0	---	0.00	29.998 
21:50	72.0	72.0	72.0	54	54.4	0	1	135	0.00	29.998 
21:55	71.8	71.8	71.8	55	54.7	0	1	135	0.00	29.998 
22:00	71.8	71.8	71.8	55	54.7	0	0	---	0.00	30.000 
22:05	71.6	71.6	71.6	55	54.6	0	0	---	0.00	30.000 
22:10	71.5	71.5	71.5	55	54.5	0	0	---	0.00	30.000 
22:15	71.3	71.3	71.3	55	54.3	0	0	---	0.00	30.006 
22:20	71.1	71.1	71.1	55	54.1	0	0	---	0.00	30.006 
22:25	70.9	70.9	70.9	56	54.4	0	0	---	0.00	30.006 
22:30	70.8	70.8	70.8	56	54.3	0	0	---	0.00	30.013 
22:35	70.6	70.6	70.6	56	54.1	0	1	135	0.00	30.013 
22:40	70.4	70.4	70.4	56	53.9	0	2	135	0.00	30.013 
22:45	70.4	70.4	70.4	57	54.4	0	1	135	0.00	30.013 
22:50	70.3	70.3	70.3	57	54.3	0	1	135	0.00	30.013 
22:55	70.3	70.3	70.3	58	54.8	0	0	---	0.00	30.013 
23:00	70.3	70.3	70.3	57	54.3	0	2	135	0.00	30.016 
23:05	70.3	70.3	70.3	56	53.8	0	2	135	0.00	30.016 
23:10	70.4	70.4	70.4	57	54.4	0	1	135	0.00	30.016 
23:15	70.4	70.4	70.4	56	53.9	0	1	135	0.00	30.015 
23:20	70.6	70.6	70.6	56	54.1	1	2	135	0.00	30.015 
23:25	70.8	70.8	70.8	56	54.3	0	3	135	0.00	30.015 
23:30	70.8	70.8	70.8	57	54.8	1	3	22	0.00	30.018 
23:35	70.6	70.6	70.6	57	54.6	0	2	22	0.00	30.018 
23:40	70.3	70.3	70.3	58	54.8	0	1	22	0.00	30.018 
23:45	69.8	69.8	69.8	59	54.8	1	3	22	0.00	30.026 
23:50	69.4	69.4	69.4	60	54.9	0	2	22	0.00	30.026 
23:55	69.1	69.1	69.1	61	55.1	0	1	22	0.00	30.026 

CoCoRaHS
IN-AL-39
A2 Web Hosting
Creative Commons License
GoDaddy
search engine by freefind advanced

loaded 2018-11-13 01:32:18 • last modified 2010-11-18 10:43:29
Privacy PolicyDisclaimer
• wx.awcolley.com is powered by PmWiki v.2002016 •
• all content (unless otherwise noted) © 2018 A W Colley